Time;durP1;ratioP1;P1;durP2;ratioP2;P2;SDS_P1;SDS_P2;PMS_P1;PMS_P2;Temp;Humidity;BMP_temperature;BMP_pressure;BME280_temperature;BME280_humidity;BME280_pressure;Samples;Min_cycle;Max_cycle;Signal;HPM_P1;HPM_P2
2021/12/03 00:01:29;;;;;;;6.15;4.35;;;2.00;85.70;;;;;;5093852;28;20200;-59
2021/12/03 00:03:58;;;;;;;9.05;4.47;;;2.00;86.30;;;;;;5095069;28;20298;-59
2021/12/03 00:06:25;;;;;;;4.25;3.80;;;2.10;85.90;;;;;;5095085;28;20294;-59
2021/12/03 00:08:53;;;;;;;5.97;4.20;;;2.10;86.40;;;;;;5094927;28;20224;-60
2021/12/03 00:11:20;;;;;;;6.40;4.10;;;2.00;85.50;;;;;;5095089;28;20228;-61
2021/12/03 00:13:47;;;;;;;5.53;3.85;;;2.00;85.80;;;;;;5095017;28;20307;-60
2021/12/03 00:16:14;;;;;;;6.00;4.65;;;2.00;85.90;;;;;;5093595;28;20222;-60
2021/12/03 00:18:41;;;;;;;5.03;4.50;;;1.90;85.60;;;;;;5094760;28;20206;-59
2021/12/03 00:21:11;;;;;;;6.82;4.65;;;2.00;86.00;;;;;;5094805;28;20204;-61
2021/12/03 00:23:38;;;;;;;5.85;4.57;;;1.80;85.80;;;;;;5094660;28;20197;-58
2021/12/03 00:26:07;;;;;;;4.90;4.40;;;1.90;86.40;;;;;;5094544;28;20263;-59
2021/12/03 00:28:35;;;;;;;5.38;4.47;;;1.90;86.20;;;;;;5094545;28;20224;-60
2021/12/03 00:31:03;;;;;;;6.32;4.28;;;2.00;86.10;;;;;;5092432;28;20204;-61
2021/12/03 00:33:31;;;;;;;4.97;4.40;;;1.90;85.50;;;;;;5094463;28;20712;-60
2021/12/03 00:35:59;;;;;;;5.60;4.20;;;1.90;85.90;;;;;;5094582;28;20200;-60
2021/12/03 00:38:29;;;;;;;5.32;4.05;;;1.90;85.80;;;;;;5094666;28;20208;-59
2021/12/03 00:40:56;;;;;;;6.88;4.50;;;1.80;86.00;;;;;;5094364;28;20200;-59
2021/12/03 00:43:23;;;;;;;5.65;4.18;;;1.80;86.20;;;;;;5094306;28;20253;-59
2021/12/03 00:45:51;;;;;;;5.38;4.40;;;1.70;86.00;;;;;;5093068;28;20295;-62
2021/12/03 00:48:18;;;;;;;8.40;4.70;;;1.40;86.60;;;;;;5094333;28;20662;-62
2021/12/03 00:50:45;;;;;;;6.60;5.18;;;1.30;87.30;;;;;;5094241;28;20322;-61
2021/12/03 00:53:12;;;;;;;6.40;4.90;;;1.40;87.70;;;;;;5094097;28;20287;-62
2021/12/03 00:55:40;;;;;;;6.07;4.70;;;1.30;87.60;;;;;;5094392;28;20210;-62
2021/12/03 00:58:07;;;;;;;8.60;5.00;;;1.30;88.30;;;;;;5094056;28;20200;-61
2021/12/03 01:00:34;;;;;;;8.38;5.30;;;1.30;88.20;;;;;;5092705;28;20208;-58
2021/12/03 01:03:02;;;;;;;8.43;5.35;;;1.30;88.60;;;;;;5093981;28;20640;-59
2021/12/03 01:05:30;;;;;;;9.63;5.50;;;1.30;88.40;;;;;;5093950;28;20236;-59
2021/12/03 01:07:57;;;;;;;9.07;5.75;;;1.40;88.20;;;;;;5093776;28;20278;-59
2021/12/03 01:10:25;;;;;;;7.45;5.25;;;1.50;87.70;;;;;;5093624;28;20246;-59
2021/12/03 01:12:55;;;;;;;9.25;5.25;;;1.50;87.10;;;;;;5093785;28;20299;-61
2021/12/03 01:15:24;;;;;;;7.93;4.97;;;1.40;87.20;;;;;;5093680;28;20298;-63
2021/12/03 01:17:52;;;;;;;7.55;5.35;;;1.40;88.00;;;;;;5093206;28;20287;-59
2021/12/03 01:20:20;;;;;;;9.48;5.43;;;1.40;87.60;;;;;;5093462;28;20199;-59
2021/12/03 01:22:48;;;;;;;8.30;5.68;;;1.40;87.60;;;;;;5093637;28;20299;-61
2021/12/03 01:25:17;;;;;;;11.00;5.53;;;1.20;88.10;;;;;;5093559;28;20200;-63
2021/12/03 01:27:45;;;;;;;9.25;5.80;;;1.10;89.30;;;;;;5093539;28;20204;-61
2021/12/03 01:30:16;;;;;;;7.95;5.60;;;1.00;89.60;;;;;;5093384;28;20282;-62
2021/12/03 01:32:44;;;;;;;6.15;5.05;;;1.10;89.80;;;;;;5092077;28;20207;-58
2021/12/03 01:35:11;;;;;;;8.45;5.18;;;1.10;89.50;;;;;;5093709;28;20211;-63
2021/12/03 01:37:39;;;;;;;10.57;6.35;;;1.20;89.80;;;;;;5093355;28;20610;-62
2021/12/03 01:40:09;;;;;;;7.32;5.80;;;1.20;89.00;;;;;;5093283;28;20243;-61
2021/12/03 01:42:37;;;;;;;7.18;5.20;;;1.20;89.10;;;;;;5093137;28;20246;-62
2021/12/03 01:45:05;;;;;;;5.90;5.07;;;1.30;89.20;;;;;;5093291;28;20287;-59
2021/12/03 01:47:33;;;;;;;9.20;5.43;;;1.30;89.00;;;;;;5091807;28;20654;-62
2021/12/03 01:50:00;;;;;;;9.48;5.60;;;1.30;88.90;;;;;;5093190;28;20227;-59
2021/12/03 01:52:27;;;;;;;8.00;6.25;;;1.30;89.20;;;;;;5093166;28;20206;-60
2021/12/03 01:54:54;;;;;;;7.40;6.45;;;1.40;88.60;;;;;;5093203;28;20290;-60
2021/12/03 01:57:21;;;;;;;10.93;5.47;;;1.40;88.40;;;;;;5093178;28;20196;-60
2021/12/03 01:59:48;;;;;;;9.15;5.68;;;1.40;88.10;;;;;;5093347;28;20300;-60
2021/12/03 02:02:15;;;;;;;8.32;5.20;;;1.40;88.00;;;;;;5091845;28;20686;-59
2021/12/03 02:04:43;;;;;;;9.30;5.88;;;1.40;87.80;;;;;;5093071;28;20299;-61
2021/12/03 02:07:10;;;;;;;7.65;5.50;;;1.40;87.60;;;;;;5093037;28;20710;-60
2021/12/03 02:09:37;;;;;;;10.30;5.82;;;1.30;87.80;;;;;;5092856;28;20267;-59
2021/12/03 02:12:04;;;;;;;8.48;6.65;;;1.30;87.80;;;;;;5093012;28;20199;-62
2021/12/03 02:14:31;;;;;;;9.07;5.63;;;1.20;88.00;;;;;;5092783;28;20690;-62
2021/12/03 02:16:58;;;;;;;10.25;6.60;;;1.10;88.10;;;;;;5091633;28;20680;-61
2021/12/03 02:19:26;;;;;;;7.00;5.10;;;0.90;88.80;;;;;;5092910;28;20241;-62
2021/12/03 02:21:54;;;;;;;6.25;4.88;;;0.90;89.30;;;;;;5092958;28;20204;-61
2021/12/03 02:24:22;;;;;;;9.30;6.20;;;0.90;89.20;;;;;;5092921;28;20200;-62
2021/12/03 02:26:49;;;;;;;5.82;4.65;;;0.70;89.30;;;;;;5092881;28;20286;-62
2021/12/03 02:29:16;;;;;;;8.15;5.55;;;0.80;90.10;;;;;;5092702;28;20251;-60
2021/12/03 02:31:43;;;;;;;9.00;5.57;;;0.90;90.10;;;;;;5091489;28;20200;-62
2021/12/03 02:34:10;;;;;;;9.43;5.47;;;0.80;89.10;;;;;;5092992;28;20200;-61
2021/12/03 02:36:37;;;;;;;8.63;5.32;;;0.80;89.60;;;;;;5092825;28;20200;-62
2021/12/03 02:39:06;;;;;;;7.47;5.47;;;0.90;89.70;;;;;;5092716;28;20204;-62
2021/12/03 02:41:33;;;;;;;11.32;5.90;;;1.00;89.70;;;;;;5092611;28;20215;-61
2021/12/03 02:44:00;;;;;;;7.97;5.60;;;1.00;89.00;;;;;;5092693;28;20574;-60
2021/12/03 02:46:27;;;;;;;12.07;6.32;;;1.00;88.80;;;;;;5091375;28;20750;-60
2021/12/03 02:48:53;;;;;;;8.07;6.07;;;1.00;88.50;;;;;;5092713;28;20224;-62
2021/12/03 02:51:20;;;;;;;10.15;6.75;;;0.90;88.50;;;;;;5092493;28;20694;-61
2021/12/03 02:53:47;;;;;;;11.18;5.93;;;0.90;88.70;;;;;;5094705;28;20303;-62
2021/12/03 02:56:15;;;;;;;9.05;6.07;;;0.80;88.60;;;;;;5096267;28;20291;-61
2021/12/03 02:58:42;;;;;;;9.30;6.03;;;0.80;88.80;;;;;;5096362;28;20199;-63
2021/12/03 03:01:11;;;;;;;8.10;5.43;;;0.80;88.40;;;;;;5095006;28;20200;-63
2021/12/03 03:03:38;;;;;;;12.13;6.35;;;0.80;88.60;;;;;;5096292;28;20291;-60
2021/12/03 03:06:08;;;;;;;8.77;6.47;;;0.60;88.40;;;;;;5096242;28;20219;-61
2021/12/03 03:08:35;;;;;;;12.20;7.18;;;0.70;88.90;;;;;;5096228;28;20226;-62
2021/12/03 03:11:06;;;;;;;9.93;6.03;;;0.80;89.00;;;;;;5095802;28;20250;-62
2021/12/03 03:13:34;;;;;;;9.40;6.03;;;0.90;88.30;;;;;;5096050;28;20251;-58
2021/12/03 03:16:01;;;;;;;10.93;6.45;;;0.90;88.10;;;;;;5094768;28;20200;-61
2021/12/03 03:18:29;;;;;;;11.82;6.43;;;0.90;87.50;;;;;;5096086;28;20294;-63
2021/12/03 03:20:59;;;;;;;11.00;7.22;;;0.90;87.80;;;;;;5096007;28;20206;-62
2021/12/03 03:23:26;;;;;;;12.65;6.85;;;0.80;87.80;;;;;;5095780;28;20208;-62
2021/12/03 03:25:53;;;;;;;8.75;5.80;;;0.80;88.10;;;;;;5096074;28;20200;-62
2021/12/03 03:28:21;;;;;;;13.07;6.45;;;0.80;87.90;;;;;;5095745;28;20741;-61
2021/12/03 03:30:51;;;;;;;7.35;6.00;;;0.90;87.70;;;;;;5094499;28;20296;-61
2021/12/03 03:33:19;;;;;;;9.73;6.72;;;0.80;87.70;;;;;;5095863;28;20223;-61
2021/12/03 03:35:47;;;;;;;9.90;6.50;;;0.90;88.00;;;;;;5095663;28;20287;-61
2021/12/03 03:38:15;;;;;;;8.57;6.28;;;0.90;87.30;;;;;;5095670;28;20207;-62
2021/12/03 03:40:43;;;;;;;10.65;6.95;;;0.80;87.70;;;;;;5095582;28;20295;-62
2021/12/03 03:43:10;;;;;;;11.43;7.15;;;0.90;88.00;;;;;;5095928;28;20211;-61
2021/12/03 03:45:40;;;;;;;10.77;6.45;;;0.90;88.00;;;;;;5094128;28;20754;-61
2021/12/03 03:48:09;;;;;;;9.43;6.35;;;0.90;87.80;;;;;;5095415;28;20257;-61
2021/12/03 03:50:36;;;;;;;9.30;6.35;;;0.90;87.60;;;;;;5095206;28;20234;-62
2021/12/03 03:53:03;;;;;;;8.85;6.57;;;0.90;87.50;;;;;;5095383;28;20211;-61
2021/12/03 03:55:31;;;;;;;12.18;6.63;;;1.00;87.60;;;;;;5095322;28;20295;-61
2021/12/03 03:58:00;;;;;;;9.45;6.28;;;0.90;87.40;;;;;;5095198;28;20261;-62
2021/12/03 04:00:31;;;;;;;10.68;6.97;;;1.00;87.40;;;;;;5094368;28;20298;-61
2021/12/03 04:02:58;;;;;;;8.40;6.65;;;1.00;87.40;;;;;;5095209;28;20204;-61
2021/12/03 04:05:27;;;;;;;9.20;6.85;;;0.90;87.10;;;;;;5095302;28;20204;-61
2021/12/03 04:07:54;;;;;;;8.60;7.03;;;0.90;87.10;;;;;;5095023;28;20294;-62
2021/12/03 04:10:21;;;;;;;8.75;7.10;;;0.90;87.30;;;;;;5094915;28;20333;-62
2021/12/03 04:12:48;;;;;;;8.48;6.53;;;0.80;87.20;;;;;;5094967;28;20738;-62
2021/12/03 04:15:16;;;;;;;10.27;7.03;;;0.70;87.80;;;;;;5094906;28;20208;-63
2021/12/03 04:17:43;;;;;;;12.57;7.72;;;0.80;88.10;;;;;;5093413;28;20211;-61
2021/12/03 04:20:12;;;;;;;8.85;6.70;;;0.80;88.20;;;;;;5094793;28;20208;-62
2021/12/03 04:22:41;;;;;;;14.27;8.05;;;0.90;87.60;;;;;;5094783;28;20279;-61
2021/12/03 04:25:12;;;;;;;9.73;7.03;;;0.90;87.40;;;;;;5094967;28;20590;-63
2021/12/03 04:27:39;;;;;;;12.30;8.10;;;0.90;87.60;;;;;;5094458;28;20306;-62
2021/12/03 04:30:11;;;;;;;11.65;7.18;;;0.90;87.70;;;;;;5094427;28;20200;-61
2021/12/03 04:32:38;;;;;;;11.52;6.95;;;0.90;87.50;;;;;;5093200;28;20199;-61
2021/12/03 04:35:07;;;;;;;13.45;7.32;;;1.10;87.80;;;;;;5094439;28;20200;-61
2021/12/03 04:37:34;;;;;;;13.02;7.53;;;1.10;86.90;;;;;;5094366;28;20204;-61
2021/12/03 04:40:02;;;;;;;11.40;7.50;;;1.20;86.70;;;;;;5094328;28;20200;-59
2021/12/03 04:42:29;;;;;;;9.48;6.70;;;1.20;86.30;;;;;;5094422;28;20295;-59
2021/12/03 04:44:56;;;;;;;11.32;7.32;;;1.20;86.30;;;;;;5094312;28;20214;-59
2021/12/03 04:47:23;;;;;;;13.45;6.90;;;1.30;86.30;;;;;;5092991;28;20592;-60
2021/12/03 04:49:50;;;;;;;8.70;7.80;;;1.40;86.30;;;;;;5094190;28;20680;-61
2021/12/03 04:52:17;;;;;;;10.25;7.60;;;1.30;85.70;;;;;;5094099;28;20250;-60
2021/12/03 04:54:44;;;;;;;10.35;7.57;;;1.20;86.00;;;;;;5094287;28;20214;-61
2021/12/03 04:57:12;;;;;;;10.75;7.45;;;1.10;85.80;;;;;;5094068;28;20215;-63
2021/12/03 04:59:39;;;;;;;11.27;8.20;;;1.10;86.40;;;;;;5093349;28;20295;-64
2021/12/03 05:02:06;;;;;;;9.35;7.43;;;1.10;86.40;;;;;;5092779;28;20298;-62
2021/12/03 05:04:37;;;;;;;12.05;8.00;;;1.00;86.60;;;;;;5094230;28;20204;-63
2021/12/03 05:07:16;;;;;;;10.95;7.55;;;1.00;87.10;;;;;;5093914;28;20290;-63
2021/12/03 05:09:43;;;;;;;14.25;8.07;;;0.90;87.10;;;;;;5093617;28;20274;-62
2021/12/03 05:12:11;;;;;;;11.00;8.25;;;0.90;86.90;;;;;;5093735;28;20295;-62
2021/12/03 05:14:38;;;;;;;12.90;8.65;;;0.80;87.80;;;;;;5093756;28;20635;-61
2021/12/03 05:17:06;;;;;;;10.88;7.70;;;0.90;87.70;;;;;;5092230;28;20211;-64
2021/12/03 05:19:33;;;;;;;10.38;7.40;;;1.00;87.40;;;;;;5093941;28;20200;-62
2021/12/03 05:22:00;;;;;;;9.77;7.50;;;1.00;86.20;;;;;;5093581;28;20203;-62
2021/12/03 05:24:26;;;;;;;10.35;8.50;;;0.90;86.30;;;;;;5093566;28;20279;-61
2021/12/03 05:26:53;;;;;;;10.30;7.75;;;0.90;86.30;;;;;;5093538;28;20330;-62
2021/12/03 05:29:22;;;;;;;11.80;8.32;;;0.80;86.40;;;;;;5093605;28;20206;-61
2021/12/03 05:31:49;;;;;;;13.13;7.80;;;0.90;86.50;;;;;;5092257;28;20232;-61
2021/12/03 05:34:16;;;;;;;9.75;7.85;;;1.10;86.60;;;;;;5093665;28;20564;-62
2021/12/03 05:36:46;;;;;;;10.13;6.95;;;1.10;85.60;;;;;;5093466;28;20224;-61
2021/12/03 05:39:13;;;;;;;11.05;7.88;;;1.10;84.40;;;;;;5093342;28;20234;-60
2021/12/03 05:41:41;;;;;;;8.93;7.38;;;1.20;84.90;;;;;;5093309;28;20253;-59
2021/12/03 05:44:08;;;;;;;8.93;8.02;;;1.20;84.50;;;;;;5093235;28;20200;-61
2021/12/03 05:46:36;;;;;;;12.90;7.80;;;1.20;84.20;;;;;;5091992;28;20212;-62
2021/12/03 05:49:03;;;;;;;11.10;7.88;;;1.10;84.10;;;;;;5093349;28;20648;-61
2021/12/03 05:51:30;;;;;;;11.23;8.50;;;1.20;84.90;;;;;;5092980;28;20251;-59
2021/12/03 05:53:57;;;;;;;12.45;8.10;;;1.40;85.00;;;;;;5093136;28;20210;-59
2021/12/03 05:56:24;;;;;;;11.57;8.13;;;1.60;84.50;;;;;;5093161;28;20283;-60
2021/12/03 05:58:51;;;;;;;10.38;7.93;;;1.60;83.60;;;;;;5093088;28;20200;-59
2021/12/03 06:01:19;;;;;;;10.73;8.18;;;1.50;84.00;;;;;;5091812;28;20606;-59
2021/12/03 06:03:47;;;;;;;12.93;9.20;;;1.60;84.30;;;;;;5093057;28;20561;-60
2021/12/03 06:06:14;;;;;;;13.23;8.75;;;1.50;84.40;;;;;;5092919;28;20224;-59
2021/12/03 06:08:41;;;;;;;9.73;8.48;;;1.50;84.30;;;;;;5092910;28;20659;-60
2021/12/03 06:11:08;;;;;;;12.73;8.93;;;1.50;84.30;;;;;;5092904;28;20239;-58
2021/12/03 06:13:39;;;;;;;9.65;7.53;;;1.40;84.20;;;;;;5092942;28;20212;-60
2021/12/03 06:16:06;;;;;;;13.07;8.95;;;1.40;83.70;;;;;;5091691;28;20671;-60
2021/12/03 06:18:33;;;;;;;11.45;7.70;;;1.40;83.30;;;;;;5092888;28;20625;-60
2021/12/03 06:21:02;;;;;;;11.80;8.75;;;1.40;83.90;;;;;;5093104;28;20636;-61
2021/12/03 06:23:29;;;;;;;14.43;9.10;;;1.30;83.80;;;;;;5093151;28;20207;-59
2021/12/03 06:25:57;;;;;;;11.30;8.70;;;1.30;84.50;;;;;;5092786;28;20213;-60
2021/12/03 06:28:25;;;;;;;12.57;8.15;;;1.40;83.90;;;;;;5094462;28;20482;-60
2021/12/03 06:30:51;;;;;;;10.25;8.35;;;1.30;83.50;;;;;;5095494;28;20238;-59
2021/12/03 06:33:19;;;;;;;16.80;9.10;;;1.30;83.50;;;;;;5096709;28;20206;-62
2021/12/03 06:35:46;;;;;;;15.88;8.38;;;1.20;84.40;;;;;;5096782;28;20196;-59
2021/12/03 06:38:15;;;;;;;11.10;9.25;;;1.30;84.80;;;;;;5096728;28;20295;-59
2021/12/03 06:40:43;;;;;;;13.32;10.55;;;1.30;84.60;;;;;;5096679;28;20210;-60
2021/12/03 06:43:10;;;;;;;11.98;9.00;;;1.40;84.80;;;;;;5096658;28;20204;-60
2021/12/03 06:45:38;;;;;;;12.30;8.43;;;1.50;83.80;;;;;;5095208;28;20647;-59
2021/12/03 06:48:05;;;;;;;15.73;9.50;;;1.40;83.00;;;;;;5096636;28;20211;-61
2021/12/03 06:50:32;;;;;;;11.95;8.23;;;1.20;82.80;;;;;;5096481;28;20737;-63
2021/12/03 06:53:02;;;;;;;8.82;7.93;;;1.20;83.20;;;;;;5096395;28;20321;-60
2021/12/03 06:55:37;;;;;;;14.15;8.73;;;0.90;81.70;;;;;;5096758;28;20215;-61
2021/12/03 06:58:04;;;;;;;9.50;8.50;;;0.90;82.40;;;;;;5096352;28;20681;-62
2021/12/03 07:00:31;;;;;;;10.30;8.20;;;0.90;82.50;;;;;;5094861;28;20208;-61
2021/12/03 07:02:58;;;;;;;12.15;8.82;;;0.70;82.30;;;;;;5096241;28;20299;-61
2021/12/03 07:05:25;;;;;;;8.20;7.25;;;0.60;82.40;;;;;;5096191;28;20307;-61
2021/12/03 07:07:52;;;;;;;8.38;7.57;;;0.50;82.30;;;;;;5096247;28;20196;-61
2021/12/03 07:10:19;;;;;;;9.38;7.03;;;0.50;82.20;;;;;;5096084;28;20264;-61
2021/12/03 07:12:48;;;;;;;10.73;8.35;;;0.50;82.40;;;;;;5095868;28;20319;-61
2021/12/03 07:15:15;;;;;;;11.45;8.13;;;0.60;82.80;;;;;;5096005;28;20765;-61
2021/12/03 07:17:42;;;;;;;10.27;7.53;;;0.70;81.80;;;;;;5094662;28;20573;-61
2021/12/03 07:20:10;;;;;;;9.55;8.55;;;0.70;81.90;;;;;;5095954;28;20232;-60
2021/12/03 07:22:37;;;;;;;9.23;7.35;;;0.70;82.10;;;;;;5095849;28;20556;-61
2021/12/03 07:25:06;;;;;;;10.00;8.35;;;0.70;81.90;;;;;;5095836;28;20725;-62
2021/12/03 07:27:33;;;;;;;10.98;8.30;;;0.80;82.60;;;;;;5096138;28;20228;-61
2021/12/03 07:30:02;;;;;;;9.88;8.40;;;0.80;81.90;;;;;;5095774;28;20287;-61
2021/12/03 07:32:30;;;;;;;9.80;8.80;;;0.80;82.00;;;;;;5094465;28;20278;-62
2021/12/03 07:34:58;;;;;;;12.00;9.80;;;0.70;82.50;;;;;;5095614;28;20689;-60
2021/12/03 07:37:25;;;;;;;10.75;9.00;;;0.60;82.30;;;;;;5095597;28;20210;-61
2021/12/03 07:39:52;;;;;;;9.57;8.02;;;0.60;82.50;;;;;;5095063;28;20202;-63
2021/12/03 07:42:19;;;;;;;10.68;9.00;;;0.60;83.20;;;;;;5095552;28;20200;-61
2021/12/03 07:44:46;;;;;;;10.57;9.25;;;0.80;83.50;;;;;;5095509;28;20464;-61
2021/12/03 07:47:14;;;;;;;11.23;8.30;;;0.80;82.90;;;;;;5094088;28;20291;-62
2021/12/03 07:49:42;;;;;;;8.68;7.63;;;0.70;82.50;;;;;;5095348;28;20295;-61
2021/12/03 07:52:11;;;;;;;11.88;8.60;;;0.70;82.00;;;;;;5095275;28;20236;-60
2021/12/03 07:54:38;;;;;;;9.15;8.15;;;0.60;81.60;;;;;;5095187;28;20208;-61
2021/12/03 07:57:05;;;;;;;9.65;7.82;;;0.60;81.70;;;;;;5095285;28;20320;-62
2021/12/03 07:59:32;;;;;;;9.82;8.65;;;0.70;82.00;;;;;;5095171;28;20200;-61
2021/12/03 08:01:59;;;;;;;11.07;9.27;;;0.80;81.80;;;;;;5093775;28;20282;-61
2021/12/03 08:04:27;;;;;;;10.45;8.80;;;0.80;81.70;;;;;;5095160;28;20292;-61
2021/12/03 08:06:54;;;;;;;10.65;8.23;;;0.80;81.30;;;;;;5095081;28;20195;-60
2021/12/03 08:09:22;;;;;;;12.35;9.23;;;0.90;81.40;;;;;;5094979;28;20208;-61
2021/12/03 08:11:49;;;;;;;10.75;7.90;;;1.00;82.00;;;;;;5094787;28;20227;-59
2021/12/03 08:14:16;;;;;;;8.73;7.70;;;1.10;81.80;;;;;;5094791;28;20298;-59
2021/12/03 08:16:43;;;;;;;11.13;9.00;;;1.30;81.60;;;;;;5093466;28;20290;-58
2021/12/03 08:19:10;;;;;;;9.85;7.82;;;1.40;81.50;;;;;;5094835;28;20223;-59
2021/12/03 08:21:39;;;;;;;8.65;7.75;;;1.50;81.80;;;;;;5094600;28;20729;-60
2021/12/03 08:24:06;;;;;;;9.63;8.35;;;1.50;80.20;;;;;;5094651;28;20612;-61
2021/12/03 08:26:33;;;;;;;9.35;8.45;;;1.30;80.20;;;;;;5094578;28;20382;-60
2021/12/03 08:29:00;;;;;;;8.90;7.75;;;1.20;80.10;;;;;;5094546;28;20294;-59
2021/12/03 08:31:27;;;;;;;10.45;8.70;;;1.30;80.30;;;;;;5093315;28;20204;-58
2021/12/03 08:33:54;;;;;;;8.50;7.32;;;1.30;80.90;;;;;;5094485;28;20215;-58
2021/12/03 08:36:21;;;;;;;9.07;8.23;;;1.40;81.40;;;;;;5094310;28;20239;-59
2021/12/03 08:38:49;;;;;;;8.02;7.25;;;1.50;80.60;;;;;;5094348;28;20235;-62
2021/12/03 08:41:17;;;;;;;9.43;8.48;;;1.20;79.20;;;;;;5094394;28;20279;-62
2021/12/03 08:43:44;;;;;;;9.70;8.90;;;1.20;79.50;;;;;;5094344;28;20206;-61
2021/12/03 08:46:14;;;;;;;8.70;7.85;;;1.00;80.10;;;;;;5092910;28;20295;-62
2021/12/03 08:48:45;;;;;;;10.60;8.50;;;0.80;80.30;;;;;;5093977;28;20204;-61
2021/12/03 08:51:24;;;;;;;9.80;8.15;;;0.70;81.80;;;;;;5076765;28;20201;-61
2021/12/03 08:56:36;;;;;;;8.27;7.57;;;0.60;81.30;;;;;;5092380;28;20204;-59
2021/12/03 08:59:04;;;;;;;7.68;7.00;;;0.60;81.50;;;;;;5081139;28;20283;-60
2021/12/03 09:01:31;;;;;;;7.00;6.45;;;0.70;81.60;;;;;;5092047;28;20612;-62
2021/12/03 09:03:58;;;;;;;7.78;6.90;;;0.80;80.00;;;;;;5076148;28;20296;-60
2021/12/03 09:06:26;;;;;;;8.43;7.35;;;0.70;79.70;;;;;;5073110;28;20240;-59
2021/12/03 09:08:54;;;;;;;9.15;7.72;;;0.70;80.20;;;;;;5072834;28;20208;-60
2021/12/03 09:11:23;;;;;;;7.72;7.10;;;0.80;80.80;;;;;;5072551;28;20576;-61
2021/12/03 09:13:51;;;;;;;7.15;6.57;;;0.90;80.90;;;;;;5072651;28;20226;-61
2021/12/03 09:16:20;;;;;;;7.00;6.50;;;0.80;79.80;;;;;;5071343;28;20200;-61
2021/12/03 09:18:48;;;;;;;7.57;6.97;;;0.70;78.60;;;;;;5072901;28;20215;-60
2021/12/03 09:21:18;;;;;;;6.65;6.05;;;0.50;79.40;;;;;;5072724;28;20212;-61
2021/12/03 09:24:01;;;;;;;7.15;6.65;;;0.60;80.00;;;;;;5072655;28;20208;-60
2021/12/03 09:26:30;;;;;;;6.28;5.30;;;0.60;80.20;;;;;;5072435;28;20557;-63
2021/12/03 09:29:01;;;;;;;6.50;6.20;;;0.60;80.40;;;;;;5072565;28;20678;-61
2021/12/03 09:31:29;;;;;;;6.80;6.20;;;0.60;78.90;;;;;;5071261;28;20220;-60
2021/12/03 09:33:57;;;;;;;7.20;6.50;;;0.60;79.30;;;;;;5073246;28;20720;-62
2021/12/03 09:36:24;;;;;;;5.68;5.30;;;0.60;79.90;;;;;;5073169;28;20679;-60
2021/12/03 09:38:51;;;;;;;6.80;5.20;;;0.60;80.00;;;;;;5073295;28;20231;-61
2021/12/03 09:41:19;;;;;;;7.68;6.97;;;0.70;80.40;;;;;;5073212;28;20299;-62
2021/12/03 09:43:50;;;;;;;7.03;6.38;;;0.70;80.40;;;;;;5073091;28;20296;-62
2021/12/03 09:46:21;;;;;;;6.88;6.38;;;0.60;80.00;;;;;;5071777;28;20197;-60
2021/12/03 09:51:39;;;;;;;7.10;6.50;;;0.60;80.10;;;;;;5072912;28;20277;-60
2021/12/03 09:56:59;;;;;;;7.00;6.40;;;0.90;80.70;;;;;;5065945;28;20287;-62
2021/12/03 09:59:55;;;;;;;5.80;5.30;;;0.90;80.20;;;;;;5072948;28;20251;-62
2021/12/03 10:02:33;;;;;;;5.90;5.40;;;0.90;80.40;;;;;;5071460;28;20200;-60
2021/12/03 10:13:49;;;;;;;6.78;6.28;;;1.20;79.50;;;;;;5072635;28;20223;-61
2021/12/03 10:16:40;;;;;;;6.70;6.20;;;1.30;79.30;;;;;;5071370;28;20215;-62
2021/12/03 10:19:21;;;;;;;6.70;6.13;;;1.40;79.20;;;;;;5072880;28;20209;-64
2021/12/03 10:22:16;;;;;;;7.95;7.20;;;1.30;79.40;;;;;;5072832;28;20205;-60
2021/12/03 10:25:15;;;;;;;7.10;6.60;;;1.20;80.20;;;;;;5072636;28;20212;-63
2021/12/03 10:28:07;;;;;;;8.80;7.00;;;1.20;79.10;;;;;;5072615;28;20222;-60
2021/12/03 10:30:57;;;;;;;6.90;5.60;;;1.10;78.70;;;;;;5071095;28;20216;-60
2021/12/03 10:33:49;;;;;;;6.70;6.05;;;1.20;79.30;;;;;;5072717;28;20326;-62
2021/12/03 10:41:58;;;;;;;8.00;7.20;;;1.40;79.50;;;;;;5072120;28;20197;-62
2021/12/03 10:44:43;;;;;;;7.30;6.70;;;1.40;78.80;;;;;;5072458;28;20205;-60
2021/12/03 10:47:27;;;;;;;7.00;6.30;;;1.40;79.00;;;;;;5071137;28;20197;-60
2021/12/03 10:50:22;;;;;;;7.60;7.00;;;1.50;79.10;;;;;;5072594;28;20211;-61
2021/12/03 10:52:57;;;;;;;7.32;6.72;;;1.60;78.90;;;;;;5072342;28;20252;-64
2021/12/03 10:58:32;;;;;;;7.18;6.50;;;1.70;78.90;;;;;;5072232;28;20668;-60
2021/12/03 11:07:16;;;;;;;8.18;7.47;;;4.50;71.30;;;;;;5058320;28;20201;-59
2021/12/03 12:24:27;;;;;;;8.32;7.70;;;3.30;74.00;;;;;;5074400;28;20565;-60
2021/12/03 13:09:43;;;;;;;6.05;5.55;;;2.90;75.60;;;;;;5073442;28;20203;-59
2021/12/03 13:18:17;;;;;;;7.60;6.90;;;3.90;71.60;;;;;;5038662;28;20197;-59
2021/12/03 13:27:06;;;;;;;6.72;6.22;;;3.90;72.00;;;;;;5073243;28;20249;-58
2021/12/03 14:39:38;;;;;;;5.30;4.68;;;2.30;77.00;;;;;;5072519;28;20249;-60
2021/12/03 14:45:28;;;;;;;6.43;5.85;;;2.50;77.10;;;;;;5051953;28;20826;-62
2021/12/03 14:48:18;;;;;;;6.03;5.55;;;2.30;77.70;;;;;;5071314;28;20202;-60
2021/12/03 14:54:11;;;;;;;7.00;6.35;;;2.30;78.40;;;;;;5070247;28;20224;-60
2021/12/03 14:56:38;;;;;;;7.05;6.55;;;2.20;78.10;;;;;;5076163;28;20239;-60
2021/12/03 14:59:13;;;;;;;7.38;5.15;;;2.40;78.50;;;;;;5076311;28;20236;-60
2021/12/03 15:01:48;;;;;;;7.28;6.70;;;2.40;77.90;;;;;;5074664;28;20208;-61
2021/12/03 15:07:08;;;;;;;10.82;7.30;;;2.40;78.00;;;;;;5075005;28;20717;-61
2021/12/03 15:09:37;;;;;;;5.10;4.70;;;2.40;78.30;;;;;;5075970;28;20250;-58
2021/12/03 15:12:34;;;;;;;7.75;6.65;;;2.50;78.00;;;;;;5075982;28;20722;-58
2021/12/03 15:21:11;;;;;;;7.60;7.03;;;2.40;77.40;;;;;;5053660;28;20213;-59
2021/12/03 15:27:00;;;;;;;6.78;4.85;;;2.40;76.60;;;;;;5051572;28;20201;-58
2021/12/03 15:29:48;;;;;;;6.68;6.18;;;2.30;76.60;;;;;;5053252;28;20213;-58
2021/12/03 15:32:28;;;;;;;6.10;5.65;;;2.40;77.20;;;;;;5077127;28;20200;-58
2021/12/03 15:35:03;;;;;;;7.65;7.05;;;2.50;76.60;;;;;;5095150;28;20204;-58
2021/12/03 15:37:53;;;;;;;6.70;6.15;;;2.60;76.00;;;;;;5094978;28;20216;-57
2021/12/03 15:40:40;;;;;;;6.18;5.30;;;2.60;75.80;;;;;;5094950;28;20265;-58
2021/12/03 15:54:51;;;;;;;6.70;6.20;;;2.50;77.00;;;;;;5074185;28;20274;-59
2021/12/03 15:57:57;;;;;;;7.07;6.47;;;2.40;77.10;;;;;;5074821;28;20204;-61
2021/12/03 16:08:51;;;;;;;6.88;6.25;;;2.20;78.40;;;;;;5074829;28;20236;-60
2021/12/03 16:11:34;;;;;;;7.55;6.80;;;2.20;78.30;;;;;;5074714;28;20229;-58
2021/12/03 16:14:21;;;;;;;8.55;6.65;;;2.20;77.90;;;;;;5074644;28;20224;-59
2021/12/03 16:17:08;;;;;;;6.90;5.80;;;2.20;78.20;;;;;;5073331;28;20674;-61
2021/12/03 16:25:31;;;;;;;7.35;6.72;;;2.20;78.60;;;;;;5074444;28;20196;-58
2021/12/03 16:50:42;;;;;;;6.18;4.80;;;2.20;78.20;;;;;;5068259;28;20197;-58
2021/12/03 16:53:16;;;;;;;9.25;7.43;;;2.30;77.70;;;;;;5073784;28;20732;-58
2021/12/03 16:55:54;;;;;;;6.90;6.40;;;2.30;77.50;;;;;;5073988;28;20235;-59
2021/12/03 16:58:22;;;;;;;7.50;6.80;;;2.30;77.50;;;;;;5073802;28;20224;-58
2021/12/03 17:00:53;;;;;;;7.07;6.47;;;2.30;77.70;;;;;;5072429;28;20651;-59
2021/12/03 17:03:24;;;;;;;6.68;6.18;;;2.30;77.50;;;;;;5073536;28;20295;-58
2021/12/03 17:08:54;;;;;;;7.10;6.50;;;2.20;77.60;;;;;;5073256;28;20193;-59
2021/12/03 17:11:37;;;;;;;7.30;6.60;;;2.20;77.70;;;;;;5073053;28;20239;-59
2021/12/03 17:14:15;;;;;;;8.88;7.97;;;2.20;77.90;;;;;;5073525;28;20229;-61
2021/12/03 17:31:30;;;;;;;6.00;5.50;;;2.20;77.10;;;;;;5072221;28;20746;-58
2021/12/03 17:47:57;;;;;;;7.32;5.85;;;2.10;76.60;;;;;;5071677;28;20201;-58
2021/12/03 17:53:31;;;;;;;6.78;6.30;;;2.10;75.70;;;;;;5059690;28;20216;-59
2021/12/03 17:56:09;;;;;;;6.97;6.47;;;2.20;75.40;;;;;;5073154;28;20235;-58
2021/12/03 17:58:38;;;;;;;7.40;6.90;;;2.20;75.20;;;;;;5072780;28;20224;-58
2021/12/03 18:01:09;;;;;;;6.85;6.25;;;2.20;75.20;;;;;;5071649;28;20201;-58
2021/12/03 18:03:45;;;;;;;7.25;6.70;;;2.20;74.80;;;;;;5072992;28;20707;-58
2021/12/03 18:06:33;;;;;;;6.47;5.97;;;2.30;74.70;;;;;;5072762;28;20678;-59
2021/12/03 18:09:11;;;;;;;5.38;4.97;;;2.30;74.70;;;;;;5072994;28;20660;-58
2021/12/03 18:11:59;;;;;;;6.85;6.30;;;2.40;74.30;;;;;;5072715;28;20687;-57
2021/12/03 18:45:12;;;;;;;7.50;6.90;;;2.10;73.90;;;;;;5067028;28;20284;-60
2021/12/03 18:50:52;;;;;;;6.72;5.20;;;2.20;73.70;;;;;;5076287;28;20208;-60
2021/12/03 18:56:06;;;;;;;7.97;7.25;;;2.30;72.60;;;;;;5072207;28;20192;-58
2021/12/03 18:58:33;;;;;;;7.78;5.75;;;2.30;72.60;;;;;;5076112;28;20221;-58
2021/12/03 19:01:00;;;;;;;7.32;6.72;;;2.30;72.70;;;;;;5074762;28;20288;-58
2021/12/03 19:03:28;;;;;;;8.73;6.97;;;2.30;72.60;;;;;;5075961;28;20274;-59
2021/12/03 19:06:09;;;;;;;8.13;7.43;;;2.40;72.60;;;;;;5075920;28;20730;-58
2021/12/03 19:08:46;;;;;;;9.25;7.38;;;2.30;72.50;;;;;;5075725;28;20211;-59
2021/12/03 19:11:18;;;;;;;7.00;6.50;;;2.30;72.20;;;;;;5075800;28;20264;-57
2021/12/03 19:13:45;;;;;;;7.57;6.88;;;2.30;72.40;;;;;;5075744;28;20224;-58
2021/12/03 19:16:15;;;;;;;8.68;7.55;;;2.30;72.80;;;;;;5074460;28;20200;-58
2021/12/03 19:18:45;;;;;;;6.45;5.85;;;2.30;72.30;;;;;;5075864;28;20219;-57